createdAt,value
2018-10-16T00:02:13.165Z,19.20
2018-10-16T00:04:42.120Z,19.20
2018-10-16T00:07:11.070Z,19.20
2018-10-16T00:09:40.224Z,19.20
2018-10-16T00:12:09.156Z,19.10
2018-10-16T00:14:38.114Z,19.20
2018-10-16T00:17:07.160Z,19.10
2018-10-16T00:19:36.140Z,19.10
2018-10-16T00:22:05.072Z,19.00
2018-10-16T00:24:34.012Z,19.00
2018-10-16T00:27:02.963Z,19.00
2018-10-16T00:29:31.884Z,19.00
2018-10-16T00:32:00.784Z,19.00
2018-10-16T00:34:29.703Z,18.90
2018-10-16T00:36:58.696Z,18.90
2018-10-16T00:39:27.598Z,18.90
2018-10-16T00:41:57.357Z,18.80
2018-10-16T00:44:26.312Z,18.80
2018-10-16T00:46:55.308Z,18.80
2018-10-16T00:49:25.072Z,18.70
2018-10-16T00:51:53.984Z,18.70
2018-10-16T00:54:22.930Z,18.60
2018-10-16T00:56:51.855Z,18.60
2018-10-16T00:59:20.774Z,18.60
2018-10-16T01:01:49.703Z,18.60
2018-10-16T01:04:18.637Z,18.60
2018-10-16T01:06:47.533Z,18.60
2018-10-16T01:09:16.767Z,18.60
2018-10-16T01:11:45.667Z,18.50
2018-10-16T01:14:14.564Z,18.50
2018-10-16T01:16:43.535Z,18.50
2018-10-16T01:19:12.473Z,18.50
2018-10-16T01:21:42.108Z,18.50
2018-10-16T01:24:11.113Z,18.50
2018-10-16T01:26:40.176Z,18.50
2018-10-16T01:29:09.116Z,18.50
2018-10-16T01:31:38.076Z,18.40
2018-10-16T01:34:06.980Z,18.40
2018-10-16T01:36:35.908Z,18.40
2018-10-16T01:39:06.495Z,18.40
2018-10-16T01:41:35.601Z,18.30
2018-10-16T01:44:04.550Z,18.30
2018-10-16T01:46:33.467Z,18.30
2018-10-16T01:49:02.463Z,18.30
2018-10-16T01:51:31.327Z,18.30
2018-10-16T01:54:00.309Z,18.40
2018-10-16T01:56:29.316Z,18.40
2018-10-16T01:58:58.215Z,18.40
2018-10-16T02:01:27.123Z,18.40
2018-10-16T02:03:56.088Z,18.40
2018-10-16T02:06:25.066Z,18.30
2018-10-16T02:08:54.052Z,18.30
2018-10-16T02:11:22.939Z,18.30
2018-10-16T02:13:52.000Z,18.30
2018-10-16T02:16:21.016Z,18.30
2018-10-16T02:18:49.944Z,18.30
2018-10-16T02:21:18.846Z,18.30
2018-10-16T02:23:47.791Z,18.30
2018-10-16T02:26:16.719Z,18.30
2018-10-16T02:28:45.701Z,18.30
2018-10-16T02:31:14.604Z,18.30
2018-10-16T02:33:43.494Z,18.30
2018-10-16T02:36:12.407Z,18.30
2018-10-16T02:38:41.284Z,18.30
2018-10-16T02:41:10.228Z,18.30
2018-10-16T02:43:39.160Z,18.30
2018-10-16T02:46:08.151Z,18.30
2018-10-16T02:48:37.256Z,18.30
2018-10-16T02:51:06.557Z,18.30
2018-10-16T02:53:35.539Z,18.30
2018-10-16T02:56:04.519Z,18.30
2018-10-16T02:58:33.422Z,18.30
2018-10-16T03:01:02.376Z,18.30
2018-10-16T03:03:37.085Z,18.30
2018-10-16T03:06:06.452Z,18.20
2018-10-16T03:08:35.849Z,18.30
2018-10-16T03:11:05.148Z,18.20
2018-10-16T03:13:34.092Z,18.30
2018-10-16T03:16:02.985Z,18.20
2018-10-16T03:18:31.949Z,18.20
2018-10-16T03:21:00.880Z,18.20
2018-10-16T03:23:29.780Z,18.20
2018-10-16T03:25:58.685Z,18.30
2018-10-16T03:28:27.571Z,18.20
2018-10-16T03:30:56.620Z,18.20
2018-10-16T03:33:25.496Z,18.20
2018-10-16T03:35:54.472Z,18.20
2018-10-16T03:38:23.408Z,18.20
2018-10-16T03:40:52.448Z,18.20
2018-10-16T03:43:21.347Z,18.20
2018-10-16T03:45:50.341Z,18.20
2018-10-16T03:48:19.287Z,18.10
2018-10-16T03:50:48.189Z,18.20
2018-10-16T03:53:17.068Z,18.20
2018-10-16T03:55:45.964Z,18.20
2018-10-16T03:58:14.904Z,18.20
2018-10-16T04:00:43.900Z,18.20
2018-10-16T04:03:12.819Z,18.20
2018-10-16T04:05:41.763Z,18.20
2018-10-16T04:08:10.697Z,18.20
2018-10-16T04:10:39.653Z,18.20
2018-10-16T04:13:08.554Z,18.20
2018-10-16T04:15:37.803Z,18.30
2018-10-16T04:18:06.798Z,18.30
2018-10-16T04:20:35.949Z,18.30
2018-10-16T04:23:04.945Z,18.30
2018-10-16T04:25:33.908Z,18.40
2018-10-16T04:28:02.916Z,18.40
2018-10-16T04:30:31.791Z,18.50
2018-10-16T04:33:00.768Z,18.50
2018-10-16T04:35:29.689Z,18.50
2018-10-16T04:37:58.584Z,18.50
2018-10-16T04:40:27.540Z,18.60
2018-10-16T04:42:56.456Z,18.60
2018-10-16T04:45:25.395Z,18.60
2018-10-16T04:47:54.412Z,18.60
2018-10-16T04:50:23.368Z,18.60
2018-10-16T04:52:52.237Z,18.60
2018-10-16T04:55:21.196Z,18.70
2018-10-16T04:57:50.232Z,18.60
2018-10-16T05:00:20.232Z,18.70
2018-10-16T05:02:49.223Z,18.70
2018-10-16T05:05:24.784Z,18.60
2018-10-16T05:07:53.832Z,18.60
2018-10-16T05:10:23.000Z,18.60
2018-10-16T05:12:51.967Z,18.60
2018-10-16T05:15:27.248Z,18.50
2018-10-16T05:17:56.475Z,18.50
2018-10-16T05:20:31.012Z,18.60
2018-10-16T05:23:00.788Z,18.60
2018-10-16T05:25:30.571Z,18.60
2018-10-16T05:27:59.484Z,18.60
2018-10-16T05:30:28.417Z,18.70
2018-10-16T05:32:57.433Z,18.70
2018-10-16T05:35:26.318Z,18.80
2018-10-16T05:37:55.284Z,18.90
2018-10-16T05:40:24.215Z,19.00
2018-10-16T05:42:53.193Z,19.20
2018-10-16T05:45:22.261Z,19.30
2018-10-16T05:47:51.319Z,19.50
2018-10-16T05:50:20.673Z,19.60
2018-10-16T05:52:53.096Z,19.70
2018-10-16T05:55:22.433Z,19.80
2018-10-16T05:57:51.360Z,19.90
2018-10-16T06:00:31.231Z,19.90
2018-10-16T06:03:01.296Z,20.00
2018-10-16T06:05:30.277Z,20.20
2018-10-16T06:07:59.428Z,20.40
2018-10-16T06:10:28.415Z,20.60
2018-10-16T06:12:57.328Z,20.90
2018-10-16T06:15:26.313Z,21.10
2018-10-16T06:17:55.287Z,21.20
2018-10-16T06:20:24.609Z,21.20
2018-10-16T06:22:53.767Z,21.30
2018-10-16T06:25:24.039Z,21.20
2018-10-16T06:27:53.624Z,21.20
2018-10-16T06:30:23.151Z,21.10
2018-10-16T06:32:52.292Z,21.20
2018-10-16T06:35:21.588Z,21.20
2018-10-16T06:37:51.056Z,21.20
2018-10-16T06:40:20.451Z,21.10
2018-10-16T06:42:50.275Z,21.10
2018-10-16T06:45:19.497Z,21.00
2018-10-16T06:47:49.592Z,20.90
2018-10-16T06:50:18.440Z,20.80
2018-10-16T06:52:47.752Z,20.70
2018-10-16T06:55:16.952Z,20.70
2018-10-16T06:57:45.804Z,20.70
2018-10-16T07:00:16.621Z,20.60
2018-10-16T07:02:45.493Z,20.70
2018-10-16T07:05:14.579Z,20.70
2018-10-16T07:07:43.481Z,20.70
2018-10-16T07:10:12.682Z,20.90
2018-10-16T07:12:41.607Z,21.00
2018-10-16T07:15:10.569Z,21.10
2018-10-16T07:17:39.510Z,21.20
2018-10-16T07:20:09.264Z,21.30
2018-10-16T07:22:38.213Z,21.40
2018-10-16T07:25:08.072Z,21.50
2018-10-16T07:27:37.664Z,21.70
2018-10-16T07:30:09.492Z,21.90
2018-10-16T07:32:38.703Z,22.10
2018-10-16T07:35:09.218Z,22.40
2018-10-16T07:37:39.257Z,22.60
2018-10-16T07:40:09.550Z,22.80
2018-10-16T07:42:38.858Z,23.00
2018-10-16T07:45:08.191Z,23.20
2018-10-16T07:47:37.587Z,23.40
2018-10-16T07:50:08.877Z,23.60
2018-10-16T07:52:37.889Z,23.80
2018-10-16T07:55:09.696Z,24.00
2018-10-16T07:57:38.653Z,24.20
2018-10-16T08:00:09.248Z,24.20
2018-10-16T08:02:38.570Z,24.20
2018-10-16T08:05:08.565Z,24.20
2018-10-16T08:10:50.401Z,23.90
2018-10-16T08:13:19.246Z,23.70
2018-10-16T08:15:48.157Z,23.60
2018-10-16T08:18:17.090Z,23.50
2018-10-16T08:20:46.040Z,23.40
2018-10-16T08:23:15.299Z,23.60
2018-10-16T08:25:44.452Z,23.80
2018-10-16T08:28:14.106Z,24.00
2018-10-16T08:30:43.005Z,24.40
2018-10-16T08:33:12.005Z,24.70
2018-10-16T08:35:40.983Z,24.90
2018-10-16T08:40:17.862Z,25.10
2018-10-16T08:45:13.026Z,25.30
2018-10-16T08:47:53.023Z,25.50
2018-10-16T08:50:34.100Z,25.80
2018-10-16T08:53:03.511Z,25.90
2018-10-16T08:55:32.871Z,25.90
2018-10-16T08:58:04.424Z,26.00
2018-10-16T09:00:34.246Z,26.00
2018-10-16T09:03:06.680Z,26.10
2018-10-16T09:05:35.864Z,26.20
2018-10-16T09:08:05.155Z,26.30
2018-10-16T09:10:34.065Z,26.30
2018-10-16T09:13:03.263Z,26.30
2018-10-16T09:15:32.830Z,26.30
2018-10-16T09:18:01.834Z,26.40
2018-10-16T09:20:30.745Z,26.30
2018-10-16T09:22:59.681Z,26.30
2018-10-16T09:25:28.666Z,26.20
2018-10-16T09:27:57.673Z,26.20
2018-10-16T09:30:26.554Z,26.30
2018-10-16T09:32:56.001Z,26.40
2018-10-16T09:35:24.884Z,26.50
2018-10-16T09:37:53.750Z,26.50
2018-10-16T09:40:22.673Z,26.40
2018-10-16T09:42:51.553Z,26.40
2018-10-16T09:45:20.398Z,26.40
2018-10-16T09:47:49.446Z,26.50
2018-10-16T09:50:18.393Z,26.50
2018-10-16T09:52:47.384Z,26.60
2018-10-16T09:55:16.262Z,26.70
2018-10-16T09:57:45.482Z,26.70
2018-10-16T10:00:20.023Z,26.70
2018-10-16T10:02:49.300Z,26.70
2018-10-16T10:05:18.188Z,26.60
2018-10-16T10:07:50.296Z,26.60
2018-10-16T10:10:20.138Z,26.60
2018-10-16T10:12:49.750Z,26.70
2018-10-16T10:15:19.308Z,26.70
2018-10-16T10:17:49.274Z,26.80
2018-10-16T10:20:20.207Z,27.00
2018-10-16T10:22:50.101Z,27.10
2018-10-16T10:25:19.553Z,27.20
2018-10-16T10:27:50.088Z,27.40
2018-10-16T10:30:19.098Z,27.50
2018-10-16T10:32:48.009Z,27.70
2018-10-16T10:35:16.940Z,27.80
2018-10-16T10:37:45.886Z,28.00
2018-10-16T10:40:14.867Z,28.00
2018-10-16T10:42:43.789Z,28.10
2018-10-16T10:45:12.932Z,28.10
2018-10-16T10:47:42.407Z,28.00
2018-10-16T10:50:13.326Z,27.90
2018-10-16T10:52:42.282Z,27.90
2018-10-16T10:55:11.415Z,27.90
2018-10-16T10:57:40.867Z,27.70
2018-10-16T11:00:12.050Z,27.50
2018-10-16T11:02:41.790Z,27.30
2018-10-16T11:05:11.477Z,27.10
2018-10-16T11:07:40.426Z,26.90
2018-10-16T11:10:12.757Z,26.70
2018-10-16T11:12:43.502Z,26.60
2018-10-16T11:15:12.905Z,26.50
2018-10-16T11:17:42.270Z,26.40
2018-10-16T11:20:12.495Z,26.40
2018-10-16T11:22:41.653Z,26.30
2018-10-16T11:25:11.247Z,26.30
2018-10-16T11:27:40.230Z,26.30
2018-10-16T11:30:12.380Z,26.40
2018-10-16T11:32:41.511Z,26.50
2018-10-16T11:35:11.690Z,26.60
2018-10-16T11:37:40.669Z,26.60
2018-10-16T11:40:10.154Z,26.60
2018-10-16T11:42:39.275Z,26.60
2018-10-16T11:45:08.346Z,26.60
2018-10-16T11:47:37.946Z,26.60
2018-10-16T11:50:08.327Z,26.70
2018-10-16T11:52:37.265Z,26.80
2018-10-16T11:55:07.982Z,26.80
2018-10-16T11:57:36.994Z,26.90
2018-10-16T12:00:10.330Z,26.90
2018-10-16T12:02:39.781Z,27.00
2018-10-16T12:05:10.120Z,27.10
2018-10-16T12:07:41.297Z,27.20
2018-10-16T12:10:12.593Z,27.30
2018-10-16T12:12:42.197Z,27.50
2018-10-16T12:15:11.298Z,27.60
2018-10-16T12:17:48.494Z,27.70
2018-10-16T12:20:27.874Z,27.80
2018-10-16T12:22:57.742Z,28.10
2018-10-16T12:25:27.774Z,28.40
2018-10-16T12:27:57.732Z,28.70
2018-10-16T12:30:30.484Z,29.00
2018-10-16T12:33:04.297Z,29.50
2018-10-16T12:35:33.490Z,30.30
2018-10-16T12:38:02.444Z,31.60
2018-10-16T12:40:31.511Z,32.90
2018-10-16T12:43:00.762Z,34.30
2018-10-16T12:45:29.621Z,35.80
2018-10-16T12:47:58.797Z,37.20
2018-10-16T12:50:27.826Z,38.40
2018-10-16T12:52:56.729Z,39.60
2018-10-16T12:55:25.766Z,41.60
2018-10-16T12:57:54.923Z,41.60
2018-10-16T13:00:23.979Z,42.50
2018-10-16T13:02:52.955Z,42.80
2018-10-16T13:05:21.955Z,42.80
2018-10-16T13:07:51.116Z,42.90
2018-10-16T13:10:20.122Z,43.10
2018-10-16T13:12:49.063Z,43.30
2018-10-16T13:15:17.934Z,43.20
2018-10-16T13:17:46.847Z,43.00
2018-10-16T13:20:16.359Z,43.00
2018-10-16T13:22:47.184Z,43.00
2018-10-16T13:25:17.086Z,43.00
2018-10-16T13:27:46.189Z,43.00
2018-10-16T13:30:17.165Z,42.70
2018-10-16T13:32:47.738Z,42.30
2018-10-16T13:35:17.866Z,42.00
2018-10-16T13:37:47.698Z,42.00
2018-10-16T13:40:16.725Z,42.00
2018-10-16T13:42:45.804Z,42.00
2018-10-16T13:45:15.967Z,42.10
2018-10-16T13:47:44.901Z,42.10
2018-10-16T13:50:15.640Z,42.00
2018-10-16T13:52:45.573Z,42.00
2018-10-16T13:55:15.459Z,41.90
2018-10-16T13:57:44.625Z,42.00
2018-10-16T14:00:17.543Z,42.00
2018-10-16T14:02:48.155Z,41.90
2018-10-16T14:05:17.209Z,41.70
2018-10-16T14:07:46.640Z,41.60
2018-10-16T14:10:16.288Z,41.50
2018-10-16T14:12:46.335Z,41.50
2018-10-16T14:15:15.697Z,41.50
2018-10-16T14:17:44.757Z,41.40
2018-10-16T14:20:14.202Z,41.20
2018-10-16T14:22:43.431Z,41.00
2018-10-16T14:25:13.738Z,40.80
2018-10-16T14:27:42.958Z,40.60
2018-10-16T14:30:13.316Z,40.30
2018-10-16T14:32:42.844Z,39.90
2018-10-16T14:35:12.325Z,39.50
2018-10-16T14:37:41.327Z,39.30
2018-10-16T14:40:13.402Z,39.00
2018-10-16T14:42:42.657Z,38.50
2018-10-16T14:45:12.550Z,38.00
2018-10-16T14:47:42.370Z,37.30
2018-10-16T14:50:13.421Z,35.80
2018-10-16T14:52:42.452Z,34.20
2018-10-16T14:55:11.530Z,32.60
2018-10-16T14:57:41.890Z,31.20
2018-10-16T15:00:12.349Z,29.90
2018-10-16T15:02:41.242Z,28.80
2018-10-16T15:05:11.230Z,27.90
2018-10-16T15:07:40.155Z,27.30
2018-10-16T15:10:09.449Z,26.80
2018-10-16T15:12:38.417Z,26.30
2018-10-16T15:15:08.029Z,26.00
2018-10-16T15:17:37.004Z,25.70
2018-10-16T15:20:08.335Z,25.50
2018-10-16T15:22:37.693Z,25.30
2018-10-16T15:25:07.883Z,25.10
2018-10-16T15:27:36.875Z,25.00
2018-10-16T15:30:07.589Z,24.80
2018-10-16T15:32:36.645Z,24.80
2018-10-16T15:35:06.833Z,24.60
2018-10-16T15:37:36.097Z,24.60
2018-10-16T15:40:06.278Z,24.50
2018-10-16T15:42:35.242Z,24.40
2018-10-16T15:45:04.502Z,24.40
2018-10-16T15:47:33.407Z,24.30
2018-10-16T15:50:02.404Z,24.20
2018-10-16T15:52:31.317Z,24.10
2018-10-16T15:55:01.190Z,23.90
2018-10-16T15:57:30.163Z,23.80
2018-10-16T15:59:59.133Z,23.70
2018-10-16T16:02:28.315Z,23.60
2018-10-16T16:04:57.220Z,23.50
2018-10-16T16:07:26.086Z,23.40
2018-10-16T16:09:55.010Z,23.30
2018-10-16T16:12:24.544Z,23.20
2018-10-16T16:14:53.482Z,23.10
2018-10-16T16:17:22.469Z,23.10
2018-10-16T16:19:51.368Z,23.00
2018-10-16T16:22:20.218Z,23.00
2018-10-16T16:24:49.248Z,22.90
2018-10-16T16:27:18.194Z,22.80
2018-10-16T16:29:47.241Z,22.80
2018-10-16T16:32:16.179Z,22.70
2018-10-16T16:34:45.059Z,22.70
2018-10-16T16:37:14.021Z,22.60
2018-10-16T16:39:43.029Z,22.60
2018-10-16T16:42:12.125Z,22.60
2018-10-16T16:44:40.959Z,22.50
2018-10-16T16:47:09.953Z,22.50
2018-10-16T16:49:39.230Z,22.50
2018-10-16T16:52:08.160Z,22.40
2018-10-16T16:54:37.079Z,22.40
2018-10-16T16:57:06.163Z,22.40
2018-10-16T16:59:35.142Z,22.40
2018-10-16T17:02:04.426Z,22.40
2018-10-16T17:04:33.922Z,22.40
2018-10-16T17:07:03.502Z,22.40
2018-10-16T17:09:32.459Z,22.40
2018-10-16T17:12:01.416Z,22.40
2018-10-16T17:14:30.828Z,22.40
2018-10-16T17:16:59.770Z,22.40
2018-10-16T17:19:28.699Z,22.40
2018-10-16T17:21:58.028Z,22.40
2018-10-16T17:24:27.708Z,22.30
2018-10-16T17:26:56.941Z,22.30
2018-10-16T17:29:25.950Z,22.30
2018-10-16T17:31:54.842Z,22.30
2018-10-16T17:34:24.358Z,22.20
2018-10-16T17:36:53.626Z,22.20
2018-10-16T17:39:22.549Z,22.20
2018-10-16T17:41:51.466Z,22.10
2018-10-16T17:44:20.439Z,22.10
2018-10-16T17:46:49.410Z,22.00
2018-10-16T17:49:18.422Z,22.00
2018-10-16T17:51:47.981Z,22.00
2018-10-16T17:54:17.022Z,22.00
2018-10-16T17:56:47.326Z,22.00
2018-10-16T17:59:16.450Z,22.00
2018-10-16T18:01:45.513Z,22.00
2018-10-16T18:04:14.830Z,21.90
2018-10-16T18:06:43.762Z,21.90
2018-10-16T18:09:13.237Z,21.90
2018-10-16T18:11:42.242Z,21.90
2018-10-16T18:14:12.150Z,21.90
2018-10-16T18:16:41.097Z,21.90
2018-10-16T18:19:10.503Z,22.00
2018-10-16T18:21:39.700Z,21.90
2018-10-16T18:24:09.722Z,21.80
2018-10-16T18:26:38.874Z,21.80
2018-10-16T18:29:07.890Z,21.80
2018-10-16T18:31:37.209Z,21.70
2018-10-16T18:34:06.581Z,21.70
2018-10-16T18:36:36.526Z,21.60
2018-10-16T18:39:07.881Z,21.60
2018-10-16T18:41:37.106Z,21.50
2018-10-16T18:44:06.320Z,21.40
2018-10-16T18:46:35.783Z,21.30
2018-10-16T18:49:04.763Z,21.30
2018-10-16T18:51:34.214Z,21.20
2018-10-16T18:54:03.167Z,21.20
2018-10-16T18:56:32.987Z,21.10
2018-10-16T18:59:02.066Z,21.10
2018-10-16T19:01:31.366Z,21.00
2018-10-16T19:04:00.673Z,21.00
2018-10-16T19:06:29.770Z,20.90
2018-10-16T19:08:58.750Z,21.00
2018-10-16T19:11:27.697Z,20.90
2018-10-16T19:13:56.847Z,20.90
2018-10-16T19:16:25.843Z,20.90
2018-10-16T19:18:54.722Z,20.90
2018-10-16T19:21:24.040Z,20.90
2018-10-16T19:23:53.338Z,20.90
2018-10-16T19:26:22.544Z,20.90
2018-10-16T19:28:51.564Z,20.90
2018-10-16T19:31:20.845Z,20.90
2018-10-16T19:33:50.656Z,20.80
2018-10-16T19:36:19.658Z,20.80
2018-10-16T19:38:49.639Z,20.80
2018-10-16T19:41:18.538Z,20.80
2018-10-16T19:43:47.438Z,20.80
2018-10-16T19:46:16.482Z,20.80
2018-10-16T19:48:46.070Z,20.70
2018-10-16T19:51:15.220Z,20.70
2018-10-16T19:53:44.217Z,20.70
2018-10-16T19:56:13.513Z,20.60
2018-10-16T19:58:42.386Z,20.70
2018-10-16T20:01:11.513Z,20.60
2018-10-16T20:03:40.509Z,20.60
2018-10-16T20:06:12.814Z,20.60
2018-10-16T20:08:42.746Z,20.60
2018-10-16T20:11:13.666Z,20.50
2018-10-16T20:13:42.811Z,20.50
2018-10-16T20:16:11.922Z,20.50
2018-10-16T20:18:40.853Z,20.50
2018-10-16T20:21:09.925Z,20.50
2018-10-16T20:23:38.980Z,20.40
2018-10-16T20:26:08.870Z,20.40
2018-10-16T20:28:38.117Z,20.40
2018-10-16T20:31:07.250Z,20.40
2018-10-16T20:33:36.121Z,20.30
2018-10-16T20:36:05.234Z,20.30
2018-10-16T20:38:34.150Z,20.30
2018-10-16T20:41:03.178Z,20.30
2018-10-16T20:43:32.122Z,20.20
2018-10-16T20:46:01.058Z,20.20
2018-10-16T20:48:30.156Z,20.20
2018-10-16T20:50:59.251Z,20.10
2018-10-16T20:53:28.334Z,20.10
2018-10-16T20:55:57.330Z,20.10
2018-10-16T20:58:26.326Z,20.10
2018-10-16T21:00:55.531Z,20.10
2018-10-16T21:03:24.569Z,20.10
2018-10-16T21:05:53.959Z,20.20
2018-10-16T21:08:22.933Z,20.10
2018-10-16T21:10:52.449Z,20.10
2018-10-16T21:13:21.309Z,20.10
2018-10-16T21:15:50.313Z,20.10
2018-10-16T21:18:20.945Z,20.10
2018-10-16T21:20:49.908Z,20.10
2018-10-16T21:23:19.213Z,20.10
2018-10-16T21:25:48.261Z,20.10
2018-10-16T21:28:17.233Z,20.10
2018-10-16T21:30:46.161Z,20.10
2018-10-16T21:33:15.181Z,20.10
2018-10-16T21:35:44.195Z,20.10
2018-10-16T21:38:13.097Z,20.10
2018-10-16T21:40:46.453Z,20.20
2018-10-16T21:43:15.403Z,20.20
2018-10-16T21:45:45.765Z,20.20
2018-10-16T21:48:15.407Z,20.30
2018-10-16T21:50:44.381Z,20.30
2018-10-16T21:53:13.221Z,20.30
2018-10-16T21:55:43.704Z,20.30
2018-10-16T21:58:12.873Z,20.30
2018-10-16T22:00:47.252Z,20.30
2018-10-16T22:03:16.157Z,20.40
2018-10-16T22:05:45.190Z,20.30
2018-10-16T22:08:14.284Z,20.40
2018-10-16T22:10:43.173Z,20.40
2018-10-16T22:13:12.148Z,20.40
2018-10-16T22:15:41.021Z,20.40
2018-10-16T22:18:09.913Z,20.40
2018-10-16T22:20:38.972Z,20.40
2018-10-16T22:23:07.921Z,20.40
2018-10-16T22:25:36.805Z,20.50
2018-10-16T22:28:05.793Z,20.40
2018-10-16T22:30:34.709Z,20.60
2018-10-16T22:33:03.682Z,20.40
2018-10-16T22:35:32.567Z,20.40
2018-10-16T22:38:01.514Z,20.40
2018-10-16T22:40:30.439Z,20.40
2018-10-16T22:42:59.443Z,20.40
2018-10-16T22:45:28.345Z,20.30
2018-10-16T22:47:57.374Z,20.30
2018-10-16T22:50:26.361Z,20.20
2018-10-16T22:52:55.299Z,20.20
2018-10-16T22:55:24.191Z,20.20
2018-10-16T22:57:53.113Z,20.10
2018-10-16T23:00:22.001Z,20.10
2018-10-16T23:02:50.881Z,20.10
2018-10-16T23:05:19.776Z,20.10
2018-10-16T23:07:48.650Z,20.10
2018-10-16T23:10:17.593Z,20.00
2018-10-16T23:12:50.954Z,20.00
2018-10-16T23:15:19.953Z,20.00
2018-10-16T23:17:48.924Z,20.00
2018-10-16T23:20:18.531Z,20.00
2018-10-16T23:22:47.797Z,20.00
2018-10-16T23:25:16.664Z,20.00
2018-10-16T23:27:45.647Z,20.00
2018-10-16T23:30:14.625Z,20.00
2018-10-16T23:32:43.596Z,20.00
2018-10-16T23:35:12.538Z,20.00
2018-10-16T23:37:41.417Z,19.90
2018-10-16T23:40:10.337Z,20.00
2018-10-16T23:42:39.213Z,20.00
2018-10-16T23:45:08.154Z,20.00
2018-10-16T23:47:37.077Z,20.00
2018-10-16T23:50:06.019Z,20.00
2018-10-16T23:52:34.861Z,20.00
2018-10-16T23:55:03.899Z,20.10
2018-10-16T23:57:33.046Z,20.10
